Impacts TAF Board INFO
FOR SITUATIONAL AWARENESS. NOT TO BE USED FOR FLIGHT PLANNING PURPOSES.
IDs:

KIAH - Houston/Bush Intl, TX, US

Issued at 1137 UTC 18 Nov 2017
Updated at 1201 UTC 18 Nov 2017
Potential Impact None Slight Moderate High
Time<<19/12Z 19/13Z 19/14Z 19/15Z 19/16Z 19/17Z 19/18Z 19/19Z 19/20Z 19/21Z 19/22Z 19/23Z 20/00Z
Type PRVL PRVL PRVL PRVL PRVL PRVL
VIS >6 >6 >6 >6 >6 >6
CIG -- -- -- -- -- --
Cover SKC SKC SKC SKC SKC SKC
FltCat VFR VFR VFR VFR VFR VFR
WX -- -- -- -- -- --
WDir 360 360 360 360 360 360
WSpd 11 11 11 11 11 11
WGst -- -- -- -- -- --

Raw TAF
KIAH 181137Z 1812/1918 20007KT P6SM BKN020
  FM181600 24011KT P6SM BKN035
  FM182000 30015G25KT P6SM BKN050
  FM182300 35012G22KT P6SM FEW250
  FM190800 36011KT P6SM SKC


METAR Board
Radar Display
Forecast Discussion

FOR SITUATIONAL AWARENESS. NOT TO BE USED FOR FLIGHT PLANNING PURPOSES.